Webcam

2017/02/25 10:50 EBBR 251050Z 22014KT CAVOK 06/00 Q1019 NOSIG

Webcam image

--- Refresh now ---